sensor_id;sensor_type;location;lat;lon;timestamp;temperature;humidity
53498;DHT22;39382;47.168;16.008;2023-06-22T00:00:29;21.20;99.90
53498;DHT22;39382;47.168;16.008;2023-06-22T00:02:55;21.20;99.90
53498;DHT22;39382;47.168;16.008;2023-06-22T00:05:21;21.10;99.90
53498;DHT22;39382;47.168;16.008;2023-06-22T00:07:46;21.00;99.90
53498;DHT22;39382;47.168;16.008;2023-06-22T00:10:12;21.00;99.90
53498;DHT22;39382;47.168;16.008;2023-06-22T00:12:38;20.90;99.90
53498;DHT22;39382;47.168;16.008;2023-06-22T00:15:04;20.90;99.90
53498;DHT22;39382;47.168;16.008;2023-06-22T00:17:29;20.90;99.90
53498;DHT22;39382;47.168;16.008;2023-06-22T00:19:55;20.90;99.90
53498;DHT22;39382;47.168;16.008;2023-06-22T00:22:24;20.80;99.90
53498;DHT22;39382;47.168;16.008;2023-06-22T00:24:55;20.80;99.90
53498;DHT22;39382;47.168;16.008;2023-06-22T00:27:21;20.70;99.90
53498;DHT22;39382;47.168;16.008;2023-06-22T00:29:46;20.70;99.90
53498;DHT22;39382;47.168;16.008;2023-06-22T00:32:12;20.70;99.90
53498;DHT22;39382;47.168;16.008;2023-06-22T00:34:38;20.60;99.90
53498;DHT22;39382;47.168;16.008;2023-06-22T00:37:03;20.60;99.90
53498;DHT22;39382;47.168;16.008;2023-06-22T00:39:29;20.50;99.90
53498;DHT22;39382;47.168;16.008;2023-06-22T00:41:55;20.50;99.90
53498;DHT22;39382;47.168;16.008;2023-06-22T00:44:21;20.50;99.90
53498;DHT22;39382;47.168;16.008;2023-06-22T00:46:47;20.40;99.90
53498;DHT22;39382;47.168;16.008;2023-06-22T00:49:12;20.40;99.90
53498;DHT22;39382;47.168;16.008;2023-06-22T00:51:38;20.40;99.90
53498;DHT22;39382;47.168;16.008;2023-06-22T00:54:05;20.40;99.90
53498;DHT22;39382;47.168;16.008;2023-06-22T00:56:32;20.40;99.90
53498;DHT22;39382;47.168;16.008;2023-06-22T00:58:58;20.30;99.90
53498;DHT22;39382;47.168;16.008;2023-06-22T01:01:25;20.30;99.90
53498;DHT22;39382;47.168;16.008;2023-06-22T01:03:51;20.30;99.90
53498;DHT22;39382;47.168;16.008;2023-06-22T01:06:23;20.30;99.90
53498;DHT22;39382;47.168;16.008;2023-06-22T01:09:00;20.20;99.90
53498;DHT22;39382;47.168;16.008;2023-06-22T01:11:41;20.30;99.90
53498;DHT22;39382;47.168;16.008;2023-06-22T01:14:15;20.20;99.90
53498;DHT22;39382;47.168;16.008;2023-06-22T01:16:46;20.30;99.90
53498;DHT22;39382;47.168;16.008;2023-06-22T01:22:10;20.20;99.90
53498;DHT22;39382;47.168;16.008;2023-06-22T01:29:58;20.20;99.90
53498;DHT22;39382;47.168;16.008;2023-06-22T01:32:33;20.10;99.90
53498;DHT22;39382;47.168;16.008;2023-06-22T01:35:01;20.10;99.90
53498;DHT22;39382;47.168;16.008;2023-06-22T01:37:28;20.10;99.90
53498;DHT22;39382;47.168;16.008;2023-06-22T01:39:55;20.10;99.90
53498;DHT22;39382;47.168;16.008;2023-06-22T01:42:24;20.00;99.90
53498;DHT22;39382;47.168;16.008;2023-06-22T01:44:54;20.00;99.90
53498;DHT22;39382;47.168;16.008;2023-06-22T01:47:21;20.00;99.90
53498;DHT22;39382;47.168;16.008;2023-06-22T01:49:48;20.00;99.90
53498;DHT22;39382;47.168;16.008;2023-06-22T01:52:14;20.00;99.90
53498;DHT22;39382;47.168;16.008;2023-06-22T01:54:40;19.90;99.90
53498;DHT22;39382;47.168;16.008;2023-06-22T01:57:06;19.80;99.90
53498;DHT22;39382;47.168;16.008;2023-06-22T01:59:39;19.80;99.90
53498;DHT22;39382;47.168;16.008;2023-06-22T02:02:09;19.80;99.90
53498;DHT22;39382;47.168;16.008;2023-06-22T02:04:48;19.80;99.90
53498;DHT22;39382;47.168;16.008;2023-06-22T02:07:18;19.70;99.90
53498;DHT22;39382;47.168;16.008;2023-06-22T02:09:45;19.70;99.90
53498;DHT22;39382;47.168;16.008;2023-06-22T02:12:14;19.70;99.90
53498;DHT22;39382;47.168;16.008;2023-06-22T02:14:42;19.60;99.90
53498;DHT22;39382;47.168;16.008;2023-06-22T02:17:09;19.60;99.90
53498;DHT22;39382;47.168;16.008;2023-06-22T02:19:41;19.60;99.90
53498;DHT22;39382;47.168;16.008;2023-06-22T02:22:07;19.60;99.90
53498;DHT22;39382;47.168;16.008;2023-06-22T02:24:32;19.60;99.90
53498;DHT22;39382;47.168;16.008;2023-06-22T02:26:59;19.70;99.90
53498;DHT22;39382;47.168;16.008;2023-06-22T02:29:25;19.60;99.90
53498;DHT22;39382;47.168;16.008;2023-06-22T02:31:52;19.60;99.90
53498;DHT22;39382;47.168;16.008;2023-06-22T02:34:17;19.50;99.90
53498;DHT22;39382;47.168;16.008;2023-06-22T02:36:47;19.50;99.90
53498;DHT22;39382;47.168;16.008;2023-06-22T02:39:25;19.50;99.90
53498;DHT22;39382;47.168;16.008;2023-06-22T02:41:52;19.50;99.90
53498;DHT22;39382;47.168;16.008;2023-06-22T02:44:19;19.40;99.90
53498;DHT22;39382;47.168;16.008;2023-06-22T02:46:46;19.40;99.90
53498;DHT22;39382;47.168;16.008;2023-06-22T02:49:12;19.40;99.90
53498;DHT22;39382;47.168;16.008;2023-06-22T02:51:45;19.40;99.90
53498;DHT22;39382;47.168;16.008;2023-06-22T02:54:11;19.30;99.90
53498;DHT22;39382;47.168;16.008;2023-06-22T02:56:36;19.30;99.90
53498;DHT22;39382;47.168;16.008;2023-06-22T02:59:02;19.30;99.90
53498;DHT22;39382;47.168;16.008;2023-06-22T03:01:29;19.30;99.90
53498;DHT22;39382;47.168;16.008;2023-06-22T03:03:56;19.20;99.90
53498;DHT22;39382;47.168;16.008;2023-06-22T03:06:22;19.30;99.90
53498;DHT22;39382;47.168;16.008;2023-06-22T03:08:49;19.20;99.90
53498;DHT22;39382;47.168;16.008;2023-06-22T03:11:15;19.20;99.90
53498;DHT22;39382;47.168;16.008;2023-06-22T03:13:40;19.20;99.90
53498;DHT22;39382;47.168;16.008;2023-06-22T03:16:06;19.20;99.90
53498;DHT22;39382;47.168;16.008;2023-06-22T03:18:32;19.20;99.90
53498;DHT22;39382;47.168;16.008;2023-06-22T03:20:57;19.20;99.90
53498;DHT22;39382;47.168;16.008;2023-06-22T03:23:23;19.20;99.90
53498;DHT22;39382;47.168;16.008;2023-06-22T03:25:49;19.20;99.90
53498;DHT22;39382;47.168;16.008;2023-06-22T03:28:15;19.20;99.90
53498;DHT22;39382;47.168;16.008;2023-06-22T03:30:40;19.20;99.90
53498;DHT22;39382;47.168;16.008;2023-06-22T03:33:06;19.20;99.90
53498;DHT22;39382;47.168;16.008;2023-06-22T03:35:31;19.20;99.90
53498;DHT22;39382;47.168;16.008;2023-06-22T03:37:57;19.20;99.90
53498;DHT22;39382;47.168;16.008;2023-06-22T03:40:23;19.30;99.90
53498;DHT22;39382;47.168;16.008;2023-06-22T03:42:48;19.30;99.90
53498;DHT22;39382;47.168;16.008;2023-06-22T03:45:14;19.40;99.90
53498;DHT22;39382;47.168;16.008;2023-06-22T03:47:40;19.50;99.90
53498;DHT22;39382;47.168;16.008;2023-06-22T03:50:06;19.60;99.90
53498;DHT22;39382;47.168;16.008;2023-06-22T03:52:31;19.60;99.90
53498;DHT22;39382;47.168;16.008;2023-06-22T03:54:57;19.80;99.90
53498;DHT22;39382;47.168;16.008;2023-06-22T03:57:23;19.70;99.90
53498;DHT22;39382;47.168;16.008;2023-06-22T03:59:50;19.70;99.90
53498;DHT22;39382;47.168;16.008;2023-06-22T04:02:15;19.80;99.90
53498;DHT22;39382;47.168;16.008;2023-06-22T04:04:41;19.90;99.90
53498;DHT22;39382;47.168;16.008;2023-06-22T04:07:07;20.00;99.90
53498;DHT22;39382;47.168;16.008;2023-06-22T04:09:33;20.00;99.90
53498;DHT22;39382;47.168;16.008;2023-06-22T04:11:58;20.10;99.90
53498;DHT22;39382;47.168;16.008;2023-06-22T04:14:24;20.10;99.90
53498;DHT22;39382;47.168;16.008;2023-06-22T04:16:50;20.00;99.90
53498;DHT22;39382;47.168;16.008;2023-06-22T04:19:15;20.00;99.90
53498;DHT22;39382;47.168;16.008;2023-06-22T04:21:43;20.00;99.90
53498;DHT22;39382;47.168;16.008;2023-06-22T04:24:14;20.00;99.90
53498;DHT22;39382;47.168;16.008;2023-06-22T04:26:40;20.10;99.90
53498;DHT22;39382;47.168;16.008;2023-06-22T04:29:07;20.20;99.90
53498;DHT22;39382;47.168;16.008;2023-06-22T04:31:37;20.10;99.90
53498;DHT22;39382;47.168;16.008;2023-06-22T04:34:05;20.20;99.90
53498;DHT22;39382;47.168;16.008;2023-06-22T04:36:34;20.20;99.90
53498;DHT22;39382;47.168;16.008;2023-06-22T04:39:06;20.30;99.90
53498;DHT22;39382;47.168;16.008;2023-06-22T04:41:32;20.50;99.90
53498;DHT22;39382;47.168;16.008;2023-06-22T04:44:19;20.50;99.90
53498;DHT22;39382;47.168;16.008;2023-06-22T04:46:55;20.60;99.90
53498;DHT22;39382;47.168;16.008;2023-06-22T04:49:29;20.80;99.90
53498;DHT22;39382;47.168;16.008;2023-06-22T04:51:59;21.60;99.90
53498;DHT22;39382;47.168;16.008;2023-06-22T04:54:25;21.60;99.90
53498;DHT22;39382;47.168;16.008;2023-06-22T04:56:51;21.70;99.90
53498;DHT22;39382;47.168;16.008;2023-06-22T04:59:27;21.70;99.90
53498;DHT22;39382;47.168;16.008;2023-06-22T05:02:00;21.80;99.90
53498;DHT22;39382;47.168;16.008;2023-06-22T05:04:27;22.20;99.90
53498;DHT22;39382;47.168;16.008;2023-06-22T05:07:00;22.50;99.90
53498;DHT22;39382;47.168;16.008;2023-06-22T05:09:26;22.70;99.90
53498;DHT22;39382;47.168;16.008;2023-06-22T05:11:51;22.80;99.90
53498;DHT22;39382;47.168;16.008;2023-06-22T05:14:18;22.90;99.90
53498;DHT22;39382;47.168;16.008;2023-06-22T05:16:44;22.90;99.90
53498;DHT22;39382;47.168;16.008;2023-06-22T05:19:11;23.20;99.90
53498;DHT22;39382;47.168;16.008;2023-06-22T05:21:37;23.20;99.90
53498;DHT22;39382;47.168;16.008;2023-06-22T05:24:03;23.30;99.90
53498;DHT22;39382;47.168;16.008;2023-06-22T05:26:30;23.20;99.90
53498;DHT22;39382;47.168;16.008;2023-06-22T05:28:56;23.20;99.90
53498;DHT22;39382;47.168;16.008;2023-06-22T05:31:23;23.10;99.90
53498;DHT22;39382;47.168;16.008;2023-06-22T05:33:51;23.00;99.90
53498;DHT22;39382;47.168;16.008;2023-06-22T05:36:17;23.10;99.90
53498;DHT22;39382;47.168;16.008;2023-06-22T05:38:45;23.20;99.90
53498;DHT22;39382;47.168;16.008;2023-06-22T05:41:11;23.40;99.90
53498;DHT22;39382;47.168;16.008;2023-06-22T05:43:36;23.50;99.90
53498;DHT22;39382;47.168;16.008;2023-06-22T05:46:03;23.70;99.90
53498;DHT22;39382;47.168;16.008;2023-06-22T05:48:29;23.90;99.90
53498;DHT22;39382;47.168;16.008;2023-06-22T05:50:55;24.00;99.90
53498;DHT22;39382;47.168;16.008;2023-06-22T05:53:21;24.00;99.90
53498;DHT22;39382;47.168;16.008;2023-06-22T05:55:46;23.90;99.90
53498;DHT22;39382;47.168;16.008;2023-06-22T05:58:12;23.90;99.90
53498;DHT22;39382;47.168;16.008;2023-06-22T06:00:39;23.90;99.90
53498;DHT22;39382;47.168;16.008;2023-06-22T06:03:05;24.00;99.90
53498;DHT22;39382;47.168;16.008;2023-06-22T06:05:32;24.00;99.90
53498;DHT22;39382;47.168;16.008;2023-06-22T06:07:59;24.10;99.90
53498;DHT22;39382;47.168;16.008;2023-06-22T06:10:25;24.20;99.90
53498;DHT22;39382;47.168;16.008;2023-06-22T06:12:50;24.30;99.90
53498;DHT22;39382;47.168;16.008;2023-06-22T06:15:16;24.40;99.90
53498;DHT22;39382;47.168;16.008;2023-06-22T06:17:52;24.50;99.90
53498;DHT22;39382;47.168;16.008;2023-06-22T06:20:19;24.70;99.90
53498;DHT22;39382;47.168;16.008;2023-06-22T06:22:45;24.80;99.90
53498;DHT22;39382;47.168;16.008;2023-06-22T06:25:11;24.80;99.90
53498;DHT22;39382;47.168;16.008;2023-06-22T06:27:51;24.90;99.90
53498;DHT22;39382;47.168;16.008;2023-06-22T06:30:18;24.90;99.90
53498;DHT22;39382;47.168;16.008;2023-06-22T06:32:45;25.10;99.90
53498;DHT22;39382;47.168;16.008;2023-06-22T06:35:11;25.20;99.90
53498;DHT22;39382;47.168;16.008;2023-06-22T06:37:43;25.40;99.90
53498;DHT22;39382;47.168;16.008;2023-06-22T06:40:10;25.50;99.90
53498;DHT22;39382;47.168;16.008;2023-06-22T06:42:38;25.60;99.90
53498;DHT22;39382;47.168;16.008;2023-06-22T06:45:06;25.70;99.90
53498;DHT22;39382;47.168;16.008;2023-06-22T06:47:32;25.70;99.90
53498;DHT22;39382;47.168;16.008;2023-06-22T06:49:57;25.90;99.90
53498;DHT22;39382;47.168;16.008;2023-06-22T06:52:23;25.90;99.90
53498;DHT22;39382;47.168;16.008;2023-06-22T06:54:49;26.10;99.90
53498;DHT22;39382;47.168;16.008;2023-06-22T06:57:17;26.20;99.90
53498;DHT22;39382;47.168;16.008;2023-06-22T06:59:43;26.40;99.90
53498;DHT22;39382;47.168;16.008;2023-06-22T07:02:08;26.50;99.90
53498;DHT22;39382;47.168;16.008;2023-06-22T07:04:34;26.60;99.90
53498;DHT22;39382;47.168;16.008;2023-06-22T07:07:01;26.60;98.90
53498;DHT22;39382;47.168;16.008;2023-06-22T07:09:27;26.70;95.60
53498;DHT22;39382;47.168;16.008;2023-06-22T07:11:53;26.80;96.00
53498;DHT22;39382;47.168;16.008;2023-06-22T07:14:18;26.90;96.10
53498;DHT22;39382;47.168;16.008;2023-06-22T07:16:44;27.00;96.20
53498;DHT22;39382;47.168;16.008;2023-06-22T07:19:11;27.20;95.60
53498;DHT22;39382;47.168;16.008;2023-06-22T07:21:37;27.40;95.50
53498;DHT22;39382;47.168;16.008;2023-06-22T07:24:05;27.50;94.70
53498;DHT22;39382;47.168;16.008;2023-06-22T07:26:34;27.70;93.80
53498;DHT22;39382;47.168;16.008;2023-06-22T07:28:59;27.70;93.40
53498;DHT22;39382;47.168;16.008;2023-06-22T07:31:25;27.70;92.90
53498;DHT22;39382;47.168;16.008;2023-06-22T07:33:52;27.60;93.80
53498;DHT22;39382;47.168;16.008;2023-06-22T07:36:18;27.80;93.40
53498;DHT22;39382;47.168;16.008;2023-06-22T07:38:44;28.00;92.10
53498;DHT22;39382;47.168;16.008;2023-06-22T07:41:09;28.10;93.70
53498;DHT22;39382;47.168;16.008;2023-06-22T07:43:35;28.40;92.40
53498;DHT22;39382;47.168;16.008;2023-06-22T07:46:05;28.40;90.70
53498;DHT22;39382;47.168;16.008;2023-06-22T07:48:31;28.40;88.20
53498;DHT22;39382;47.168;16.008;2023-06-22T07:50:57;28.40;89.80
53498;DHT22;39382;47.168;16.008;2023-06-22T07:53:22;28.40;90.00
53498;DHT22;39382;47.168;16.008;2023-06-22T07:55:49;28.40;91.60
53498;DHT22;39382;47.168;16.008;2023-06-22T07:58:14;28.70;91.40
53498;DHT22;39382;47.168;16.008;2023-06-22T08:00:41;28.80;90.50
53498;DHT22;39382;47.168;16.008;2023-06-22T08:03:07;28.80;90.80
53498;DHT22;39382;47.168;16.008;2023-06-22T08:05:33;28.90;89.60
53498;DHT22;39382;47.168;16.008;2023-06-22T08:07:58;28.90;89.60
53498;DHT22;39382;47.168;16.008;2023-06-22T08:10:24;29.10;89.50
53498;DHT22;39382;47.168;16.008;2023-06-22T08:12:50;29.20;89.30
53498;DHT22;39382;47.168;16.008;2023-06-22T08:15:17;29.30;88.30
53498;DHT22;39382;47.168;16.008;2023-06-22T08:17:44;29.30;88.20
53498;DHT22;39382;47.168;16.008;2023-06-22T08:20:11;29.40;87.80
53498;DHT22;39382;47.168;16.008;2023-06-22T08:22:43;29.50;88.30
53498;DHT22;39382;47.168;16.008;2023-06-22T08:25:09;29.60;87.40
53498;DHT22;39382;47.168;16.008;2023-06-22T08:27:35;29.50;86.70
53498;DHT22;39382;47.168;16.008;2023-06-22T08:30:01;29.70;87.80
53498;DHT22;39382;47.168;16.008;2023-06-22T08:32:27;29.80;87.10
53498;DHT22;39382;47.168;16.008;2023-06-22T08:34:57;29.80;87.00
53498;DHT22;39382;47.168;16.008;2023-06-22T08:37:23;29.80;85.40
53498;DHT22;39382;47.168;16.008;2023-06-22T08:39:58;29.80;86.30
53498;DHT22;39382;47.168;16.008;2023-06-22T08:42:23;29.80;87.10
53498;DHT22;39382;47.168;16.008;2023-06-22T08:44:50;30.00;87.30
53498;DHT22;39382;47.168;16.008;2023-06-22T08:47:15;30.10;85.10
53498;DHT22;39382;47.168;16.008;2023-06-22T08:49:41;29.90;83.70
53498;DHT22;39382;47.168;16.008;2023-06-22T08:52:07;30.10;86.50
53498;DHT22;39382;47.168;16.008;2023-06-22T08:54:33;30.20;85.80
53498;DHT22;39382;47.168;16.008;2023-06-22T08:57:00;30.10;83.70
53498;DHT22;39382;47.168;16.008;2023-06-22T08:59:26;30.10;84.80
53498;DHT22;39382;47.168;16.008;2023-06-22T09:01:51;30.30;86.60
53498;DHT22;39382;47.168;16.008;2023-06-22T09:04:17;30.40;83.60
53498;DHT22;39382;47.168;16.008;2023-06-22T09:06:43;30.60;83.70
53498;DHT22;39382;47.168;16.008;2023-06-22T09:09:12;30.60;82.20
53498;DHT22;39382;47.168;16.008;2023-06-22T09:11:37;30.70;82.40
53498;DHT22;39382;47.168;16.008;2023-06-22T09:14:03;30.50;83.70
53498;DHT22;39382;47.168;16.008;2023-06-22T09:16:29;30.50;83.90
53498;DHT22;39382;47.168;16.008;2023-06-22T09:18:55;30.50;83.30
53498;DHT22;39382;47.168;16.008;2023-06-22T09:21:21;30.50;83.60
53498;DHT22;39382;47.168;16.008;2023-06-22T09:23:47;30.50;83.00
53498;DHT22;39382;47.168;16.008;2023-06-22T09:26:19;30.70;82.10
53498;DHT22;39382;47.168;16.008;2023-06-22T09:28:45;30.70;81.00
53498;DHT22;39382;47.168;16.008;2023-06-22T09:31:11;30.50;83.30
53498;DHT22;39382;47.168;16.008;2023-06-22T09:33:37;30.60;84.50
53498;DHT22;39382;47.168;16.008;2023-06-22T09:36:06;30.70;79.10
53498;DHT22;39382;47.168;16.008;2023-06-22T09:38:38;30.70;78.00
53498;DHT22;39382;47.168;16.008;2023-06-22T09:41:04;30.50;77.20
53498;DHT22;39382;47.168;16.008;2023-06-22T09:43:31;30.60;81.90
53498;DHT22;39382;47.168;16.008;2023-06-22T09:45:57;30.90;80.90
53498;DHT22;39382;47.168;16.008;2023-06-22T09:48:23;31.00;79.30
53498;DHT22;39382;47.168;16.008;2023-06-22T09:50:49;31.10;79.20
53498;DHT22;39382;47.168;16.008;2023-06-22T09:53:15;31.20;78.20
53498;DHT22;39382;47.168;16.008;2023-06-22T09:55:40;31.10;75.40
53498;DHT22;39382;47.168;16.008;2023-06-22T09:58:06;31.20;76.90
53498;DHT22;39382;47.168;16.008;2023-06-22T10:00:32;31.20;77.60
53498;DHT22;39382;47.168;16.008;2023-06-22T10:02:57;31.40;76.00
53498;DHT22;39382;47.168;16.008;2023-06-22T10:05:23;31.50;74.40
53498;DHT22;39382;47.168;16.008;2023-06-22T10:07:50;31.60;73.10
53498;DHT22;39382;47.168;16.008;2023-06-22T10:10:16;31.70;73.50
53498;DHT22;39382;47.168;16.008;2023-06-22T10:12:44;31.70;72.10
53498;DHT22;39382;47.168;16.008;2023-06-22T10:15:10;31.60;73.50
53498;DHT22;39382;47.168;16.008;2023-06-22T10:17:36;31.60;74.20
53498;DHT22;39382;47.168;16.008;2023-06-22T10:20:02;31.80;74.90
53498;DHT22;39382;47.168;16.008;2023-06-22T10:22:41;32.00;72.80
53498;DHT22;39382;47.168;16.008;2023-06-22T10:25:08;31.90;72.80
53498;DHT22;39382;47.168;16.008;2023-06-22T10:27:33;31.90;71.70
53498;DHT22;39382;47.168;16.008;2023-06-22T10:29:59;32.00;73.00
53498;DHT22;39382;47.168;16.008;2023-06-22T10:32:25;31.90;73.50
53498;DHT22;39382;47.168;16.008;2023-06-22T10:34:51;32.10;71.80
53498;DHT22;39382;47.168;16.008;2023-06-22T10:37:16;32.20;72.10
53498;DHT22;39382;47.168;16.008;2023-06-22T10:39:42;32.20;71.00
53498;DHT22;39382;47.168;16.008;2023-06-22T10:42:08;32.00;68.90
53498;DHT22;39382;47.168;16.008;2023-06-22T10:44:33;32.00;68.80
53498;DHT22;39382;47.168;16.008;2023-06-22T10:46:59;32.10;70.50
53498;DHT22;39382;47.168;16.008;2023-06-22T10:49:24;32.20;68.60
53498;DHT22;39382;47.168;16.008;2023-06-22T10:51:50;32.10;68.40
53498;DHT22;39382;47.168;16.008;2023-06-22T10:54:16;31.90;69.50
53498;DHT22;39382;47.168;16.008;2023-06-22T10:56:43;31.90;68.80
53498;DHT22;39382;47.168;16.008;2023-06-22T10:59:09;32.00;68.70
53498;DHT22;39382;47.168;16.008;2023-06-22T11:01:35;32.00;70.10
53498;DHT22;39382;47.168;16.008;2023-06-22T11:04:02;32.00;69.60
53498;DHT22;39382;47.168;16.008;2023-06-22T11:06:28;32.00;70.60
53498;DHT22;39382;47.168;16.008;2023-06-22T11:08:53;32.00;69.90
53498;DHT22;39382;47.168;16.008;2023-06-22T11:11:19;32.10;71.00
53498;DHT22;39382;47.168;16.008;2023-06-22T11:13:45;31.80;70.20
53498;DHT22;39382;47.168;16.008;2023-06-22T11:16:10;31.80;70.00
53498;DHT22;39382;47.168;16.008;2023-06-22T11:18:36;32.10;71.50
53498;DHT22;39382;47.168;16.008;2023-06-22T11:21:02;32.10;71.10
53498;DHT22;39382;47.168;16.008;2023-06-22T11:23:28;32.40;71.40
53498;DHT22;39382;47.168;16.008;2023-06-22T11:25:54;32.50;69.20
53498;DHT22;39382;47.168;16.008;2023-06-22T11:28:20;32.30;69.60
53498;DHT22;39382;47.168;16.008;2023-06-22T11:30:46;32.30;70.30
53498;DHT22;39382;47.168;16.008;2023-06-22T11:33:11;32.30;67.80
53498;DHT22;39382;47.168;16.008;2023-06-22T11:35:37;32.50;69.00
53498;DHT22;39382;47.168;16.008;2023-06-22T11:38:03;32.70;69.90
53498;DHT22;39382;47.168;16.008;2023-06-22T11:40:30;32.80;68.10
53498;DHT22;39382;47.168;16.008;2023-06-22T11:42:55;32.90;67.80
53498;DHT22;39382;47.168;16.008;2023-06-22T11:45:21;32.80;68.70
53498;DHT22;39382;47.168;16.008;2023-06-22T11:47:47;32.80;69.50
53498;DHT22;39382;47.168;16.008;2023-06-22T11:50:13;32.90;68.10
53498;DHT22;39382;47.168;16.008;2023-06-22T11:52:38;32.80;69.20
53498;DHT22;39382;47.168;16.008;2023-06-22T11:55:05;32.90;68.80
53498;DHT22;39382;47.168;16.008;2023-06-22T11:57:36;33.00;69.60
53498;DHT22;39382;47.168;16.008;2023-06-22T12:00:05;32.90;68.90
53498;DHT22;39382;47.168;16.008;2023-06-22T12:02:41;32.80;67.60
53498;DHT22;39382;47.168;16.008;2023-06-22T12:05:07;32.70;68.00
53498;DHT22;39382;47.168;16.008;2023-06-22T12:07:33;32.70;69.00
53498;DHT22;39382;47.168;16.008;2023-06-22T12:09:59;32.80;68.50
53498;DHT22;39382;47.168;16.008;2023-06-22T12:12:24;32.80;69.40
53498;DHT22;39382;47.168;16.008;2023-06-22T12:14:50;32.90;70.90
53498;DHT22;39382;47.168;16.008;2023-06-22T12:17:16;33.00;69.70
53498;DHT22;39382;47.168;16.008;2023-06-22T12:19:41;33.10;71.70
53498;DHT22;39382;47.168;16.008;2023-06-22T12:22:07;33.00;69.20
53498;DHT22;39382;47.168;16.008;2023-06-22T12:24:32;32.70;72.10
53498;DHT22;39382;47.168;16.008;2023-06-22T12:26:58;32.70;73.70
53498;DHT22;39382;47.168;16.008;2023-06-22T12:29:24;32.60;71.60
53498;DHT22;39382;47.168;16.008;2023-06-22T12:31:49;32.50;72.50
53498;DHT22;39382;47.168;16.008;2023-06-22T12:34:15;32.40;74.50
53498;DHT22;39382;47.168;16.008;2023-06-22T12:36:40;32.40;74.70
53498;DHT22;39382;47.168;16.008;2023-06-22T12:39:06;32.50;74.10
53498;DHT22;39382;47.168;16.008;2023-06-22T12:41:32;32.90;74.70
53498;DHT22;39382;47.168;16.008;2023-06-22T12:43:57;32.80;73.50
53498;DHT22;39382;47.168;16.008;2023-06-22T12:46:23;33.00;73.40
53498;DHT22;39382;47.168;16.008;2023-06-22T12:48:49;33.00;71.80
53498;DHT22;39382;47.168;16.008;2023-06-22T12:51:21;32.80;71.90
53498;DHT22;39382;47.168;16.008;2023-06-22T12:53:47;33.00;73.70
53498;DHT22;39382;47.168;16.008;2023-06-22T12:56:13;33.10;73.90
53498;DHT22;39382;47.168;16.008;2023-06-22T12:58:38;33.00;73.90
53498;DHT22;39382;47.168;16.008;2023-06-22T13:01:04;33.00;74.90
53498;DHT22;39382;47.168;16.008;2023-06-22T13:03:30;33.10;73.90
53498;DHT22;39382;47.168;16.008;2023-06-22T13:05:55;33.00;72.90
53498;DHT22;39382;47.168;16.008;2023-06-22T13:08:21;33.00;72.80
53498;DHT22;39382;47.168;16.008;2023-06-22T13:10:46;33.10;72.80
53498;DHT22;39382;47.168;16.008;2023-06-22T13:13:12;33.00;72.90
53498;DHT22;39382;47.168;16.008;2023-06-22T13:15:38;33.00;75.00
53498;DHT22;39382;47.168;16.008;2023-06-22T13:18:03;32.90;75.60
53498;DHT22;39382;47.168;16.008;2023-06-22T13:20:29;32.80;74.80
53498;DHT22;39382;47.168;16.008;2023-06-22T13:22:55;32.80;75.00
53498;DHT22;39382;47.168;16.008;2023-06-22T13:25:21;32.70;74.20
53498;DHT22;39382;47.168;16.008;2023-06-22T13:27:49;32.80;75.10
53498;DHT22;39382;47.168;16.008;2023-06-22T13:30:15;33.00;76.10
53498;DHT22;39382;47.168;16.008;2023-06-22T13:32:41;33.00;77.30
53498;DHT22;39382;47.168;16.008;2023-06-22T13:35:11;33.00;75.00
53498;DHT22;39382;47.168;16.008;2023-06-22T13:37:37;33.20;75.90
53498;DHT22;39382;47.168;16.008;2023-06-22T13:40:04;33.20;73.80
53498;DHT22;39382;47.168;16.008;2023-06-22T13:42:32;33.10;73.40
53498;DHT22;39382;47.168;16.008;2023-06-22T13:44:58;33.00;75.10
53498;DHT22;39382;47.168;16.008;2023-06-22T13:47:24;33.10;73.70
53498;DHT22;39382;47.168;16.008;2023-06-22T13:49:49;33.20;75.40
53498;DHT22;39382;47.168;16.008;2023-06-22T13:52:15;33.20;74.20
53498;DHT22;39382;47.168;16.008;2023-06-22T13:54:41;33.20;71.90
53498;DHT22;39382;47.168;16.008;2023-06-22T13:57:06;33.00;71.80
53498;DHT22;39382;47.168;16.008;2023-06-22T13:59:32;33.00;72.80
53498;DHT22;39382;47.168;16.008;2023-06-22T14:01:58;32.80;73.90
53498;DHT22;39382;47.168;16.008;2023-06-22T14:04:24;32.80;73.50
53498;DHT22;39382;47.168;16.008;2023-06-22T14:06:49;32.80;72.90
53498;DHT22;39382;47.168;16.008;2023-06-22T14:09:15;33.00;72.70
53498;DHT22;39382;47.168;16.008;2023-06-22T14:11:41;33.00;73.90
53498;DHT22;39382;47.168;16.008;2023-06-22T14:14:06;33.00;73.90
53498;DHT22;39382;47.168;16.008;2023-06-22T14:16:32;33.10;73.30
53498;DHT22;39382;47.168;16.008;2023-06-22T14:18:57;33.30;72.40
53498;DHT22;39382;47.168;16.008;2023-06-22T14:21:23;33.40;73.50
53498;DHT22;39382;47.168;16.008;2023-06-22T14:23:49;33.40;72.10
53498;DHT22;39382;47.168;16.008;2023-06-22T14:26:18;33.10;72.70
53498;DHT22;39382;47.168;16.008;2023-06-22T14:28:47;33.10;73.00
53498;DHT22;39382;47.168;16.008;2023-06-22T14:31:14;33.10;72.50
53498;DHT22;39382;47.168;16.008;2023-06-22T14:33:40;33.20;71.30
53498;DHT22;39382;47.168;16.008;2023-06-22T14:36:06;33.20;71.10
53498;DHT22;39382;47.168;16.008;2023-06-22T14:38:31;33.20;72.80
53498;DHT22;39382;47.168;16.008;2023-06-22T14:40:57;33.20;72.20
53498;DHT22;39382;47.168;16.008;2023-06-22T14:43:23;33.20;71.50
53498;DHT22;39382;47.168;16.008;2023-06-22T14:45:48;33.10;73.60
53498;DHT22;39382;47.168;16.008;2023-06-22T14:48:14;33.10;73.70
53498;DHT22;39382;47.168;16.008;2023-06-22T14:50:39;33.20;72.70
53498;DHT22;39382;47.168;16.008;2023-06-22T14:53:05;33.20;71.80
53498;DHT22;39382;47.168;16.008;2023-06-22T14:55:31;33.00;72.80
53498;DHT22;39382;47.168;16.008;2023-06-22T14:57:56;33.20;72.70
53498;DHT22;39382;47.168;16.008;2023-06-22T15:00:22;33.20;71.70
53498;DHT22;39382;47.168;16.008;2023-06-22T15:02:48;33.30;71.40
53498;DHT22;39382;47.168;16.008;2023-06-22T15:05:13;33.40;72.40
53498;DHT22;39382;47.168;16.008;2023-06-22T15:07:39;33.40;72.10
53498;DHT22;39382;47.168;16.008;2023-06-22T15:10:06;33.40;70.70
53498;DHT22;39382;47.168;16.008;2023-06-22T15:12:31;33.20;71.70
53498;DHT22;39382;47.168;16.008;2023-06-22T15:14:57;33.10;72.70
53498;DHT22;39382;47.168;16.008;2023-06-22T15:17:23;33.00;71.40
53498;DHT22;39382;47.168;16.008;2023-06-22T15:19:48;33.10;69.80